Time;durP1;ratioP1;P1;durP2;ratioP2;P2;SDS_P1;SDS_P2;PMS_P1;PMS_P2;Temp;Humidity;BMP_temperature;BMP_pressure;BME280_temperature;BME280_humidity;BME280_pressure;Samples;Min_cycle;Max_cycle;Signal;HPM_P1;HPM_P2
2022/12/31 00:00:35;;;;;;;1.42;0.77;;;10.50;99.90;;;;;;6160990;23;20080;-72
2022/12/31 00:03:02;;;;;;;3.30;0.90;;;10.50;99.90;;;;;;6160991;23;20005;-73
2022/12/31 00:05:33;;;;;;;1.35;0.77;;;10.60;99.90;;;;;;6135239;23;20088;-72
2022/12/31 00:08:01;;;;;;;1.40;0.75;;;10.60;99.90;;;;;;6160847;23;20397;-72
2022/12/31 00:10:29;;;;;;;1.48;0.88;;;10.70;99.90;;;;;;6160941;23;20044;-72
2022/12/31 00:12:57;;;;;;;1.83;0.70;;;10.70;99.90;;;;;;6161587;23;20073;-72
2022/12/31 00:15:24;;;;;;;1.77;1.00;;;10.70;99.90;;;;;;6160963;23;20381;-72
2022/12/31 00:17:52;;;;;;;2.00;0.98;;;10.70;99.90;;;;;;6159232;23;20479;-72
2022/12/31 00:20:19;;;;;;;1.58;1.02;;;10.70;99.90;;;;;;6160797;23;20029;-72
2022/12/31 00:22:47;;;;;;;1.10;0.80;;;10.70;99.90;;;;;;6161744;23;20001;-72
2022/12/31 00:25:14;;;;;;;1.85;1.30;;;10.70;99.90;;;;;;6160277;23;19997;-73
2022/12/31 00:27:41;;;;;;;1.15;0.65;;;10.70;99.90;;;;;;6160668;23;20056;-72
2022/12/31 00:30:09;;;;;;;1.70;0.70;;;10.70;99.90;;;;;;6161407;23;20084;-72
2022/12/31 00:32:36;;;;;;;0.90;0.40;;;10.70;99.90;;;;;;6160981;23;20002;-72
2022/12/31 00:35:04;;;;;;;1.60;0.80;;;10.80;99.90;;;;;;6160651;23;20012;-73
2022/12/31 00:37:31;;;;;;;1.00;0.60;;;10.80;99.90;;;;;;6160688;23;20005;-72
2022/12/31 00:39:58;;;;;;;1.80;0.65;;;10.80;99.90;;;;;;6160619;23;20006;-73
2022/12/31 00:42:25;;;;;;;1.85;0.80;;;10.80;99.90;;;;;;6160728;23;20081;-72
2022/12/31 00:44:53;;;;;;;1.63;0.77;;;10.90;99.90;;;;;;6160546;23;20183;-72
2022/12/31 00:47:20;;;;;;;1.00;0.50;;;10.90;99.90;;;;;;6160935;23;19997;-72
2022/12/31 00:49:47;;;;;;;0.88;0.40;;;10.90;99.90;;;;;;6160468;23;20008;-73
2022/12/31 00:52:17;;;;;;;1.10;0.50;;;10.90;99.90;;;;;;6159414;23;20036;-72
2022/12/31 00:54:44;;;;;;;1.25;0.60;;;10.90;99.90;;;;;;6160353;23;20005;-72
2022/12/31 00:57:11;;;;;;;0.70;0.40;;;10.80;99.90;;;;;;6160490;23;20093;-72
2022/12/31 00:59:39;;;;;;;0.75;0.40;;;10.80;99.90;;;;;;6161000;23;20061;-73
2022/12/31 01:02:06;;;;;;;0.50;0.20;;;10.80;99.90;;;;;;6160601;23;19998;-72
2022/12/31 01:04:34;;;;;;;3.55;0.50;;;10.90;99.90;;;;;;6160360;23;20394;-72
2022/12/31 01:07:02;;;;;;;0.70;0.40;;;10.90;99.90;;;;;;6159101;23;20052;-72
2022/12/31 01:09:29;;;;;;;1.15;0.30;;;11.00;99.90;;;;;;6134522;23;20036;-72
2022/12/31 01:11:59;;;;;;;1.00;0.40;;;11.00;99.90;;;;;;6160269;23;20060;-72
2022/12/31 01:14:26;;;;;;;1.58;0.45;;;11.00;99.90;;;;;;6160245;23;20037;-72
2022/12/31 01:16:53;;;;;;;1.58;0.40;;;11.00;99.90;;;;;;6160318;23;20017;-72
2022/12/31 01:19:28;;;;;;;2.35;0.40;;;11.10;99.90;;;;;;6159384;23;20048;-72
2022/12/31 01:21:56;;;;;;;1.13;0.57;;;11.00;99.90;;;;;;6158931;23;20033;-72
2022/12/31 01:24:23;;;;;;;0.80;0.40;;;11.00;99.90;;;;;;6160262;23;20007;-73
2022/12/31 01:26:51;;;;;;;1.95;0.60;;;11.00;99.90;;;;;;6160321;23;20021;-73
2022/12/31 01:29:18;;;;;;;1.00;0.55;;;11.00;99.90;;;;;;6158644;23;20016;-73
2022/12/31 01:31:45;;;;;;;0.93;0.50;;;10.90;99.90;;;;;;6158809;23;20014;-73
2022/12/31 01:34:13;;;;;;;1.00;0.43;;;10.90;99.90;;;;;;6158755;23;20136;-72
2022/12/31 01:36:40;;;;;;;2.85;0.65;;;10.90;99.90;;;;;;6160420;23;20367;-73
2022/12/31 01:39:08;;;;;;;2.28;0.50;;;10.90;99.90;;;;;;6160166;23;20001;-72
2022/12/31 01:41:39;;;;;;;2.55;0.47;;;11.00;99.90;;;;;;6160423;23;20002;-72
2022/12/31 01:44:12;;;;;;;0.95;0.40;;;11.00;99.90;;;;;;6158780;23;20011;-72
2022/12/31 01:46:47;;;;;;;1.02;0.40;;;11.10;99.90;;;;;;6160008;23;20056;-72
2022/12/31 01:49:21;;;;;;;0.60;0.30;;;11.10;99.90;;;;;;6160162;23;20006;-72
2022/12/31 01:52:04;;;;;;;0.70;0.40;;;11.20;99.90;;;;;;6160374;23;20008;-72
2022/12/31 01:54:37;;;;;;;0.70;0.25;;;11.30;99.90;;;;;;6160389;23;20052;-73
2022/12/31 01:57:06;;;;;;;0.70;0.40;;;11.40;99.90;;;;;;6160555;23;20262;-72
2022/12/31 01:59:33;;;;;;;2.25;0.30;;;11.40;99.90;;;;;;6159941;23;20056;-72
2022/12/31 02:02:01;;;;;;;0.20;0.20;;;11.40;99.90;;;;;;6160303;23;20052;-72
2022/12/31 02:04:29;;;;;;;0.20;0.20;;;11.50;99.90;;;;;;6158535;23;20378;-72
2022/12/31 02:07:05;;;;;;;0.40;0.28;;;11.50;99.90;;;;;;6159877;23;20009;-72
2022/12/31 02:09:35;;;;;;;2.35;0.93;;;11.50;99.90;;;;;;6160627;23;20005;-72
2022/12/31 02:12:03;;;;;;;0.60;0.30;;;11.60;99.90;;;;;;6159948;23;20005;-72
2022/12/31 02:14:43;;;;;;;0.88;0.40;;;11.60;99.90;;;;;;6159849;23;20029;-72
2022/12/31 02:17:48;;;;;;;1.27;0.60;;;11.60;99.90;;;;;;6160117;23;20340;-72
2022/12/31 02:20:32;;;;;;;3.30;0.22;;;11.60;99.90;;;;;;6160067;23;20089;-73
2022/12/31 02:23:42;;;;;;;0.68;0.30;;;11.60;99.90;;;;;;6160272;23;20077;-73
2022/12/31 02:26:34;;;;;;;0.35;0.25;;;11.60;99.90;;;;;;6159838;23;20010;-72
2022/12/31 02:29:49;;;;;;;0.55;0.35;;;11.60;99.90;;;;;;6158659;23;20410;-72
2022/12/31 02:32:35;;;;;;;0.30;0.20;;;11.60;99.90;;;;;;6160180;23;20262;-72
2022/12/31 02:35:15;;;;;;;1.10;0.50;;;11.50;99.90;;;;;;6159799;23;20013;-73
2022/12/31 02:37:48;;;;;;;0.50;0.30;;;11.50;99.90;;;;;;6183336;23;20056;-72
2022/12/31 02:40:20;;;;;;;0.43;0.25;;;11.50;99.90;;;;;;6160390;23;20002;-72
2022/12/31 02:42:47;;;;;;;1.75;0.40;;;11.50;99.90;;;;;;6161450;23;20024;-73
2022/12/31 02:45:23;;;;;;;0.20;0.20;;;11.40;99.90;;;;;;6160431;23;20366;-72
2022/12/31 02:48:17;;;;;;;0.20;0.10;;;11.40;99.90;;;;;;6161833;23;20025;-72
2022/12/31 02:50:58;;;;;;;1.25;0.25;;;11.40;99.90;;;;;;6161730;23;19998;-72
2022/12/31 02:53:48;;;;;;;0.50;0.30;;;11.40;99.90;;;;;;6162552;23;20004;-72
2022/12/31 02:56:27;;;;;;;1.20;0.40;;;11.40;99.90;;;;;;6161668;23;20275;-72
2022/12/31 03:02:14;;;;;;;0.93;0.50;;;11.40;99.90;;;;;;6161587;23;20012;-73
2022/12/31 03:04:55;;;;;;;1.33;0.40;;;11.40;99.90;;;;;;6161482;23;19997;-73
2022/12/31 03:07:26;;;;;;;0.70;0.43;;;11.40;99.90;;;;;;6160243;23;20039;-73
2022/12/31 03:09:54;;;;;;;5.55;0.40;;;11.30;99.90;;;;;;6161536;23;20275;-72
2022/12/31 03:15:22;;;;;;;0.32;0.30;;;11.30;99.90;;;;;;6161840;23;20057;-72
2022/12/31 03:18:00;;;;;;;1.17;0.30;;;11.20;99.90;;;;;;6160092;23;20005;-72
2022/12/31 03:23:27;;;;;;;2.55;0.50;;;11.20;99.90;;;;;;6161627;23;20386;-72
2022/12/31 03:25:55;;;;;;;1.75;0.60;;;11.20;99.90;;;;;;6159767;23;20383;-72
2022/12/31 03:28:28;;;;;;;0.90;0.40;;;11.20;99.90;;;;;;6161376;23;20006;-72
2022/12/31 03:30:59;;;;;;;1.08;0.50;;;11.30;99.90;;;;;;6161300;23;20006;-72
2022/12/31 03:33:36;;;;;;;0.85;0.50;;;11.30;99.90;;;;;;6161381;23;20022;-72
2022/12/31 03:36:09;;;;;;;2.15;0.70;;;11.40;99.90;;;;;;6161224;23;20166;-72
2022/12/31 03:38:37;;;;;;;1.23;0.38;;;11.40;99.90;;;;;;6161143;23;20010;-72
2022/12/31 03:41:04;;;;;;;1.27;0.40;;;11.50;99.90;;;;;;6160049;23;20018;-72
2022/12/31 03:43:32;;;;;;;0.40;0.30;;;11.50;99.90;;;;;;6161894;23;20255;-72
2022/12/31 03:46:00;;;;;;;0.82;0.50;;;11.60;99.90;;;;;;6161178;23;20005;-72
2022/12/31 03:48:27;;;;;;;1.02;0.60;;;11.60;99.90;;;;;;6161284;23;20005;-72
2022/12/31 03:50:54;;;;;;;1.63;0.40;;;11.60;99.90;;;;;;6161026;23;20056;-72
2022/12/31 03:53:22;;;;;;;2.95;0.70;;;11.70;99.90;;;;;;6160638;23;20017;-72
2022/12/31 03:55:52;;;;;;;2.05;0.50;;;11.70;99.90;;;;;;6161781;23;20367;-73
2022/12/31 03:58:20;;;;;;;0.90;0.50;;;11.70;99.90;;;;;;6161680;23;20252;-72
2022/12/31 04:00:48;;;;;;;0.50;0.28;;;11.80;99.90;;;;;;6161055;23;20024;-72
2022/12/31 04:03:15;;;;;;;0.47;0.30;;;11.80;99.90;;;;;;6161872;23;19997;-72
2022/12/31 04:05:42;;;;;;;2.20;0.13;;;11.90;99.90;;;;;;6160930;23;20001;-72
2022/12/31 04:08:09;;;;;;;0.55;0.30;;;11.90;99.90;;;;;;6161186;23;20004;-72
2022/12/31 04:10:37;;;;;;;1.52;0.20;;;11.90;99.90;;;;;;6160965;23;20077;-73
2022/12/31 04:13:04;;;;;;;8.18;0.30;;;12.00;99.90;;;;;;6161004;23;20033;-72
2022/12/31 04:15:32;;;;;;;0.32;0.20;;;12.10;99.90;;;;;;6161608;23;19997;-72
2022/12/31 04:18:00;;;;;;;0.35;0.20;;;12.10;99.90;;;;;;6161691;23;20020;-72
2022/12/31 04:20:27;;;;;;;0.40;0.20;;;12.20;99.90;;;;;;6160816;23;20076;-72
2022/12/31 04:22:54;;;;;;;0.45;0.20;;;12.20;99.90;;;;;;6161608;23;20347;-72
2022/12/31 04:25:21;;;;;;;0.32;0.20;;;12.20;99.90;;;;;;6159520;23;20001;-72
2022/12/31 04:27:48;;;;;;;0.77;0.35;;;12.30;99.90;;;;;;6160712;23;20327;-72
2022/12/31 04:30:16;;;;;;;0.40;0.20;;;12.30;99.90;;;;;;6160643;23;20033;-72
2022/12/31 04:32:43;;;;;;;0.43;0.10;;;12.30;99.90;;;;;;6161426;23;20106;-72
2022/12/31 04:35:10;;;;;;;0.30;0.20;;;12.40;99.90;;;;;;6161333;23;20359;-72
2022/12/31 04:37:38;;;;;;;0.17;0.10;;;12.50;99.90;;;;;;6159553;23;20318;-72
2022/12/31 04:40:06;;;;;;;0.10;0.10;;;12.50;99.90;;;;;;6160479;23;20363;-73
2022/12/31 04:42:34;;;;;;;0.10;0.10;;;12.60;99.90;;;;;;6161041;23;20002;-72
2022/12/31 04:45:02;;;;;;;0.05;0.05;;;12.60;99.90;;;;;;6160629;23;20076;-72
2022/12/31 04:47:29;;;;;;;1.85;0.13;;;12.70;99.90;;;;;;6161171;23;20263;-73
2022/12/31 04:49:57;;;;;;;1.65;0.10;;;12.80;99.90;;;;;;6160502;23;20017;-72
2022/12/31 04:52:24;;;;;;;0.13;0.10;;;13.00;99.90;;;;;;6159220;23;20013;-72
2022/12/31 04:54:51;;;;;;;0.10;0.10;;;13.10;99.90;;;;;;6160580;23;20005;-72
2022/12/31 04:57:19;;;;;;;2.63;0.10;;;13.20;99.90;;;;;;6159356;23;20015;-72
2022/12/31 04:59:46;;;;;;;0.40;0.20;;;13.30;99.90;;;;;;6161105;23;20054;-72
2022/12/31 05:02:14;;;;;;;0.50;0.20;;;13.40;99.90;;;;;;6160141;23;20036;-72
2022/12/31 05:04:41;;;;;;;0.95;0.10;;;13.50;99.90;;;;;;6159010;23;20006;-72
2022/12/31 05:07:08;;;;;;;0.10;0.10;;;13.60;99.90;;;;;;6160732;23;20359;-72
2022/12/31 05:09:35;;;;;;;0.00;0.00;;;13.60;99.90;;;;;;6161069;23;20077;-72
2022/12/31 05:12:02;;;;;;;0.13;0.10;;;13.70;99.90;;;;;;6161035;23;20001;-72
2022/12/31 05:14:30;;;;;;;0.10;0.10;;;13.70;99.90;;;;;;6160347;23;20124;-72
2022/12/31 05:16:58;;;;;;;0.90;0.10;;;13.60;99.90;;;;;;6160357;23;20030;-72
2022/12/31 05:19:25;;;;;;;0.10;0.10;;;13.60;99.90;;;;;;6160094;23;20080;-72
2022/12/31 05:24:38;;;;;;;0.00;0.00;;;13.30;99.90;;;;;;6160328;23;20017;-72
2022/12/31 05:27:05;;;;;;;0.10;0.10;;;13.10;99.90;;;;;;6159994;23;20018;-73
2022/12/31 05:29:33;;;;;;;0.28;0.00;;;12.90;99.90;;;;;;6158908;23;20006;-72
2022/12/31 05:32:00;;;;;;;0.28;0.10;;;12.80;99.90;;;;;;6159128;23;20013;-72
2022/12/31 05:34:27;;;;;;;0.00;0.00;;;12.70;99.90;;;;;;6158854;23;20088;-72
2022/12/31 05:36:55;;;;;;;0.50;0.00;;;12.60;99.90;;;;;;6160246;23;20009;-72
2022/12/31 05:39:22;;;;;;;0.10;0.10;;;12.50;99.90;;;;;;6158742;23;20092;-72
2022/12/31 05:41:49;;;;;;;1.38;0.10;;;12.40;99.90;;;;;;6160341;23;20444;-72
2022/12/31 05:44:17;;;;;;;0.00;0.00;;;12.30;99.90;;;;;;6134259;23;20002;-72
2022/12/31 05:46:45;;;;;;;0.80;0.00;;;12.30;99.90;;;;;;6160095;23;20314;-72
2022/12/31 05:49:13;;;;;;;0.10;0.10;;;12.30;99.90;;;;;;6160552;23;20064;-72
2022/12/31 05:51:41;;;;;;;0.55;0.10;;;12.30;99.90;;;;;;6160913;23;20005;-72
2022/12/31 05:54:08;;;;;;;0.10;0.03;;;12.30;99.90;;;;;;6160355;23;20303;-72
2022/12/31 05:56:35;;;;;;;0.45;0.10;;;12.40;99.90;;;;;;6134218;23;20378;-72
2022/12/31 05:59:03;;;;;;;0.10;0.10;;;12.50;99.90;;;;;;6160634;23;20299;-72
2022/12/31 06:01:33;;;;;;;0.40;0.20;;;12.60;99.90;;;;;;6160674;23;20072;-72
2022/12/31 06:04:01;;;;;;;0.35;0.10;;;12.70;99.90;;;;;;6160597;23;20073;-72
2022/12/31 06:06:28;;;;;;;0.40;0.10;;;12.80;99.90;;;;;;6158628;23;20013;-72
2022/12/31 06:08:56;;;;;;;0.10;0.10;;;12.90;99.90;;;;;;6160026;23;20029;-72
2022/12/31 06:11:23;;;;;;;1.55;0.20;;;12.90;99.90;;;;;;6159848;23;20005;-72
2022/12/31 06:13:50;;;;;;;0.15;0.15;;;13.00;99.90;;;;;;6160042;23;20269;-72
2022/12/31 06:16:17;;;;;;;0.10;0.10;;;13.10;99.90;;;;;;6159746;23;20006;-72
2022/12/31 06:18:49;;;;;;;0.10;0.10;;;13.20;99.90;;;;;;6161724;23;20275;-72
2022/12/31 06:21:18;;;;;;;0.65;0.25;;;13.20;99.90;;;;;;6163050;23;20422;-73
2022/12/31 06:23:46;;;;;;;0.43;0.13;;;13.20;99.90;;;;;;6163374;23;20029;-73
2022/12/31 06:26:13;;;;;;;0.20;0.10;;;13.30;99.90;;;;;;6163468;23;20014;-72
2022/12/31 06:28:41;;;;;;;1.42;0.10;;;13.40;99.90;;;;;;6163579;23;20008;-72
2022/12/31 06:31:12;;;;;;;0.25;0.10;;;13.50;99.90;;;;;;6163433;23;20015;-72
2022/12/31 06:33:40;;;;;;;0.28;0.13;;;13.50;99.90;;;;;;6162037;23;20017;-72
2022/12/31 06:36:12;;;;;;;1.63;0.10;;;13.60;99.90;;;;;;6163943;23;20005;-72
2022/12/31 06:38:40;;;;;;;0.10;0.00;;;13.70;99.90;;;;;;6162969;23;20010;-72
2022/12/31 06:41:10;;;;;;;0.22;0.10;;;13.80;99.90;;;;;;6161723;23;20002;-72
2022/12/31 06:43:38;;;;;;;0.90;0.30;;;14.00;99.90;;;;;;6163146;23;20009;-72
2022/12/31 06:46:07;;;;;;;0.20;0.05;;;14.10;99.90;;;;;;6163022;23;20005;-72
2022/12/31 06:48:34;;;;;;;0.55;0.10;;;14.10;99.90;;;;;;6161795;23;20037;-72
2022/12/31 06:51:20;;;;;;;0.28;0.10;;;14.20;99.90;;;;;;6162945;23;20248;-72
2022/12/31 06:53:49;;;;;;;0.73;0.13;;;14.30;99.90;;;;;;6163261;23;20006;-72
2022/12/31 06:56:20;;;;;;;0.13;0.10;;;14.30;99.90;;;;;;6163007;23;20363;-73
2022/12/31 06:58:48;;;;;;;0.20;0.20;;;14.40;99.90;;;;;;6161657;23;20012;-72
2022/12/31 07:01:27;;;;;;;0.40;0.10;;;14.50;99.90;;;;;;6163685;23;19998;-72
2022/12/31 07:04:16;;;;;;;0.25;0.10;;;14.60;99.90;;;;;;6163451;23;19997;-72
2022/12/31 07:06:53;;;;;;;0.47;0.20;;;14.60;99.90;;;;;;6163708;23;20005;-72
2022/12/31 07:09:30;;;;;;;2.50;0.30;;;14.70;99.90;;;;;;6162873;23;20009;-72
2022/12/31 07:12:04;;;;;;;0.77;0.28;;;14.80;99.90;;;;;;6164431;23;20069;-73
2022/12/31 07:15:05;;;;;;;0.47;0.15;;;14.80;99.90;;;;;;6161645;23;20010;-73
2022/12/31 07:18:03;;;;;;;0.32;0.10;;;14.80;99.90;;;;;;6162940;23;20005;-72
2022/12/31 07:20:31;;;;;;;1.40;0.43;;;14.80;99.90;;;;;;6161424;23;20283;-72
2022/12/31 07:22:58;;;;;;;0.70;0.10;;;14.90;99.90;;;;;;6163709;23;20363;-72
2022/12/31 07:25:26;;;;;;;0.60;0.20;;;14.90;99.90;;;;;;6163246;23;20005;-72
2022/12/31 07:27:56;;;;;;;3.08;0.30;;;14.90;99.90;;;;;;6161538;23;20013;-72
2022/12/31 07:30:44;;;;;;;1.60;0.20;;;15.00;99.90;;;;;;6161970;23;20012;-80
2022/12/31 07:33:24;;;;;;;3.67;0.65;;;15.00;99.90;;;;;;6161461;23;20005;-73
2022/12/31 07:36:29;;;;;;;0.30;0.20;;;15.00;99.90;;;;;;6161584;23;20338;-74
2022/12/31 07:39:23;;;;;;;0.25;0.10;;;15.00;99.90;;;;;;6184793;23;20009;-74
2022/12/31 07:42:28;;;;;;;0.85;0.20;;;15.10;99.90;;;;;;6161462;23;20334;-73
2022/12/31 07:45:14;;;;;;;1.80;0.20;;;15.10;99.90;;;;;;6161140;23;20002;-76
2022/12/31 07:47:42;;;;;;;0.20;0.10;;;15.20;99.90;;;;;;6161601;23;19997;-73
2022/12/31 07:50:16;;;;;;;0.68;0.22;;;15.20;99.90;;;;;;6161074;23;20013;-73
2022/12/31 07:52:44;;;;;;;0.13;0.10;;;15.20;99.90;;;;;;6161745;23;20005;-73
2022/12/31 07:55:12;;;;;;;0.10;0.10;;;15.30;99.90;;;;;;6161489;23;20262;-73
2022/12/31 07:58:06;;;;;;;0.45;0.20;;;15.30;99.90;;;;;;6161205;23;20036;-73
2022/12/31 08:00:33;;;;;;;0.95;0.50;;;15.20;99.90;;;;;;6161070;23;20006;-76
2022/12/31 08:03:00;;;;;;;0.82;0.40;;;15.20;99.90;;;;;;6135528;23;20008;-75
2022/12/31 08:05:49;;;;;;;3.05;0.30;;;15.20;99.90;;;;;;6161633;23;20001;-73
2022/12/31 08:08:53;;;;;;;1.27;0.20;;;15.10;99.90;;;;;;6161671;23;20051;-75
2022/12/31 08:11:32;;;;;;;0.17;0.15;;;15.00;99.90;;;;;;6160943;23;20245;-79
2022/12/31 08:14:01;;;;;;;1.08;0.30;;;15.00;99.90;;;;;;6160956;23;20367;-72
2022/12/31 08:16:30;;;;;;;0.82;0.40;;;15.00;99.90;;;;;;6160855;23;20002;-75
2022/12/31 08:18:57;;;;;;;1.98;0.30;;;15.00;99.90;;;;;;6160677;23;20010;-72
2022/12/31 08:22:01;;;;;;;1.10;0.57;;;15.10;99.90;;;;;;6161464;23;20359;-72
2022/12/31 08:24:29;;;;;;;2.67;0.38;;;15.10;99.90;;;;;;6161161;23;20001;-71
2022/12/31 08:27:31;;;;;;;1.27;0.30;;;15.10;99.90;;;;;;6160870;23;20032;-72
2022/12/31 08:30:03;;;;;;;0.38;0.30;;;15.10;99.90;;;;;;6161056;23;20010;-72
2022/12/31 08:32:41;;;;;;;1.67;0.40;;;15.00;99.90;;;;;;6161610;23;20001;-71
2022/12/31 08:35:56;;;;;;;0.90;0.32;;;14.90;99.90;;;;;;6161338;23;20001;-73
2022/12/31 08:38:51;;;;;;;2.15;0.40;;;14.80;99.90;;;;;;6056865;23;20058;-72
2022/12/31 08:41:34;;;;;;;1.25;0.30;;;14.80;99.90;;;;;;6159240;23;20077;-72
2022/12/31 08:44:20;;;;;;;1.08;0.30;;;14.80;99.90;;;;;;6159477;23;20005;-94
2022/12/31 08:47:13;;;;;;;1.80;0.30;;;14.80;99.90;;;;;;6159222;23;20006;-74
2022/12/31 08:49:41;;;;;;;1.75;0.30;;;14.90;99.90;;;;;;6159101;23;20005;-73
2022/12/31 08:52:24;;;;;;;1.17;0.40;;;14.90;99.90;;;;;;6160435;23;20005;-75
2022/12/31 08:54:51;;;;;;;0.55;0.50;;;15.00;99.90;;;;;;6159150;23;20005;-73
2022/12/31 08:57:44;;;;;;;0.93;0.40;;;15.10;99.90;;;;;;6160438;23;20032;-73
2022/12/31 09:00:15;;;;;;;0.82;0.30;;;15.10;99.90;;;;;;6160418;23;20005;-73
2022/12/31 09:03:00;;;;;;;1.83;0.30;;;15.20;99.90;;;;;;6160492;23;20002;-72
2022/12/31 09:05:57;;;;;;;0.38;0.22;;;15.20;99.90;;;;;;6160661;23;20060;-72
2022/12/31 09:09:01;;;;;;;0.70;0.30;;;15.30;99.90;;;;;;6160924;23;20249;-72
2022/12/31 09:11:54;;;;;;;1.35;0.28;;;15.40;99.90;;;;;;6160770;23;20124;-74
2022/12/31 09:14:42;;;;;;;0.40;0.20;;;15.50;99.90;;;;;;6160366;23;20361;-72
2022/12/31 09:17:31;;;;;;;1.25;0.60;;;15.60;99.90;;;;;;6161208;23;20002;-73
2022/12/31 09:19:59;;;;;;;1.77;0.40;;;15.60;99.90;;;;;;6160403;23;20001;-73
2022/12/31 09:22:27;;;;;;;1.48;0.30;;;15.50;99.90;;;;;;6160298;23;20072;-73
2022/12/31 09:24:54;;;;;;;1.33;0.38;;;15.40;99.90;;;;;;6158928;23;20016;-73
2022/12/31 09:27:58;;;;;;;5.05;0.50;;;15.40;99.90;;;;;;6160197;23;20390;-73
2022/12/31 09:30:31;;;;;;;1.20;0.40;;;15.40;99.90;;;;;;6135092;23;20315;-73
2022/12/31 09:33:21;;;;;;;2.05;0.30;;;15.40;99.90;;;;;;6160938;23;20008;-73
2022/12/31 09:35:55;;;;;;;1.67;0.63;;;15.30;99.90;;;;;;6160139;23;19997;-73
2022/12/31 09:39:04;;;;;;;0.98;0.25;;;15.20;99.90;;;;;;6160225;23;20060;-73
2022/12/31 09:41:50;;;;;;;0.43;0.30;;;15.30;99.90;;;;;;6042619;23;20079;-73
2022/12/31 09:44:44;;;;;;;0.87;0.23;;;15.30;99.90;;;;;;6151658;23;20010;-73
2022/12/31 09:47:33;;;;;;;0.98;0.30;;;15.40;99.90;;;;;;6160455;23;20229;-73
2022/12/31 09:50:18;;;;;;;2.97;0.60;;;15.60;99.90;;;;;;6160334;23;20029;-73
2022/12/31 09:53:07;;;;;;;1.80;0.30;;;15.80;99.90;;;;;;6158738;23;20010;-73
2022/12/31 09:55:38;;;;;;;2.13;0.50;;;16.00;99.90;;;;;;6160323;23;20024;-72
2022/12/31 09:58:34;;;;;;;3.17;0.47;;;16.10;99.90;;;;;;6160356;23;20311;-83
2022/12/31 10:01:32;;;;;;;2.37;0.40;;;16.20;99.90;;;;;;6160389;23;20005;-74
2022/12/31 10:04:18;;;;;;;0.60;0.25;;;16.10;99.90;;;;;;6160121;23;20002;-73
2022/12/31 10:07:17;;;;;;;1.05;0.30;;;16.10;99.90;;;;;;6160177;23;19998;-74
2022/12/31 10:10:09;;;;;;;0.98;0.25;;;16.20;99.90;;;;;;6139656;23;20397;-74
2022/12/31 10:13:01;;;;;;;1.80;0.30;;;16.20;99.90;;;;;;6160604;23;20005;-74
2022/12/31 10:15:36;;;;;;;1.02;0.30;;;16.20;99.90;;;;;;6159989;23;20032;-74
2022/12/31 10:18:30;;;;;;;3.00;0.35;;;16.20;99.90;;;;;;6160688;23;20029;-77
2022/12/31 10:21:12;;;;;;;0.55;0.30;;;16.20;99.90;;;;;;6159789;23;20009;-74
2022/12/31 10:24:17;;;;;;;2.67;0.40;;;16.20;99.90;;;;;;6160540;23;20002;-72
2022/12/31 10:27:02;;;;;;;2.05;0.50;;;16.30;99.90;;;;;;6160226;23;20072;-72
2022/12/31 10:29:55;;;;;;;2.70;0.57;;;16.30;99.90;;;;;;6160208;23;20076;-74
2022/12/31 10:32:44;;;;;;;2.17;0.32;;;16.30;99.90;;;;;;6160009;23;20013;-74
2022/12/31 10:35:51;;;;;;;1.65;0.30;;;16.20;99.90;;;;;;6158425;23;20060;-74
2022/12/31 10:38:43;;;;;;;1.20;0.30;;;16.20;99.90;;;;;;6042060;23;20015;-73
2022/12/31 10:41:42;;;;;;;0.50;0.30;;;16.20;99.90;;;;;;6156587;23;20005;-74
2022/12/31 10:44:28;;;;;;;1.02;0.30;;;16.20;99.90;;;;;;6159634;23;20002;-74
2022/12/31 10:47:28;;;;;;;1.90;0.65;;;16.30;99.90;;;;;;6159967;23;20005;-74
2022/12/31 10:50:14;;;;;;;0.75;0.30;;;16.30;99.90;;;;;;6159686;23;20049;-74
2022/12/31 10:52:58;;;;;;;1.02;0.40;;;16.30;99.90;;;;;;6160119;23;20367;-74
2022/12/31 10:56:00;;;;;;;5.25;1.85;;;16.30;99.90;;;;;;6160433;23;20005;-74
2022/12/31 10:58:52;;;;;;;1.33;0.57;;;16.40;99.90;;;;;;6159824;23;20013;-74
2022/12/31 11:01:47;;;;;;;2.65;0.57;;;16.40;99.90;;;;;;6160048;23;20002;-74
2022/12/31 11:04:42;;;;;;;1.85;0.50;;;16.30;99.90;;;;;;6161389;23;20371;-74
2022/12/31 11:07:30;;;;;;;5.05;1.20;;;16.30;99.90;;;;;;6161737;23;20001;-72
2022/12/31 11:10:25;;;;;;;0.55;0.20;;;16.30;99.90;;;;;;6160201;23;20005;-73
2022/12/31 11:13:11;;;;;;;1.60;0.40;;;16.30;99.90;;;;;;6162521;23;20001;-72
2022/12/31 11:16:02;;;;;;;4.30;0.68;;;16.30;99.90;;;;;;6162098;23;20005;-72
2022/12/31 11:18:47;;;;;;;2.22;0.70;;;16.30;99.90;;;;;;6162235;23;20009;-72
2022/12/31 11:21:19;;;;;;;3.45;0.70;;;16.40;99.90;;;;;;6162041;23;20009;-73
2022/12/31 11:23:58;;;;;;;3.70;1.40;;;16.40;99.90;;;;;;6162885;23;20073;-73
2022/12/31 11:26:43;;;;;;;8.30;3.05;;;16.40;99.90;;;;;;6161595;23;20075;-72
2022/12/31 11:29:29;;;;;;;1.23;0.40;;;16.40;99.90;;;;;;6161984;23;20076;-72
2022/12/31 11:32:07;;;;;;;0.68;0.20;;;16.30;99.90;;;;;;6162390;23;20029;-73
2022/12/31 11:34:48;;;;;;;4.18;0.50;;;16.30;99.90;;;;;;6161069;23;20013;-73
2022/12/31 11:37:18;;;;;;;0.90;0.40;;;16.30;99.90;;;;;;6161565;23;20073;-73
2022/12/31 11:40:09;;;;;;;2.00;0.50;;;16.30;99.90;;;;;;6161420;23;20079;-75
2022/12/31 11:43:10;;;;;;;3.42;0.35;;;16.30;99.90;;;;;;6111569;23;20367;-75
2022/12/31 11:46:20;;;;;;;1.42;0.22;;;16.30;99.90;;;;;;6161497;23;20056;-74
2022/12/31 11:49:17;;;;;;;2.80;0.32;;;16.20;99.90;;;;;;6057377;23;20266;-76
2022/12/31 11:52:07;;;;;;;3.83;0.60;;;16.10;99.90;;;;;;6167718;23;20005;-76
2022/12/31 11:54:41;;;;;;;1.27;0.32;;;16.20;99.90;;;;;;6166697;23;20014;-76
2022/12/31 11:57:26;;;;;;;0.77;0.32;;;16.20;99.90;;;;;;6166817;23;20005;-76
2022/12/31 12:00:07;;;;;;;1.00;0.38;;;16.20;99.90;;;;;;6161252;23;20045;-74
2022/12/31 12:02:42;;;;;;;1.67;0.40;;;16.20;99.90;;;;;;6161202;23;20005;-74
2022/12/31 12:05:15;;;;;;;3.28;0.63;;;16.30;99.90;;;;;;6160850;23;20075;-73
2022/12/31 12:07:42;;;;;;;1.83;0.30;;;16.40;99.90;;;;;;6159674;23;20006;-75
2022/12/31 12:10:29;;;;;;;1.00;0.43;;;16.50;99.90;;;;;;6163265;23;20001;-77
2022/12/31 12:12:58;;;;;;;0.93;0.32;;;16.60;99.90;;;;;;6161885;23;20051;-73
2022/12/31 12:15:36;;;;;;;0.82;0.35;;;16.70;99.90;;;;;;6159108;23;20117;-72
2022/12/31 12:18:14;;;;;;;2.53;0.70;;;16.70;99.90;;;;;;6160913;23;20088;-75
2022/12/31 12:20:45;;;;;;;1.45;0.40;;;16.70;99.90;;;;;;6159407;23;20248;-73
2022/12/31 12:23:24;;;;;;;1.13;0.45;;;16.70;99.90;;;;;;6160996;23;20326;-74
2022/12/31 12:25:51;;;;;;;3.72;0.73;;;16.60;99.90;;;;;;6161164;23;20021;-72
2022/12/31 12:28:21;;;;;;;1.75;0.50;;;16.70;99.90;;;;;;6159429;23;20056;-72
2022/12/31 12:31:22;;;;;;;1.70;0.50;;;16.70;99.90;;;;;;6160634;23;20060;-72
2022/12/31 12:33:51;;;;;;;1.23;0.50;;;16.70;99.90;;;;;;6159227;23;20244;-72
2022/12/31 12:36:19;;;;;;;3.70;0.50;;;16.80;99.90;;;;;;6161532;23;19997;-74
2022/12/31 12:38:47;;;;;;;3.22;1.02;;;16.80;99.90;;;;;;6160468;23;20032;-72
2022/12/31 12:41:24;;;;;;;3.08;0.95;;;16.80;99.90;;;;;;6160795;23;20021;-72
2022/12/31 12:44:07;;;;;;;1.48;0.40;;;16.80;99.90;;;;;;6160540;23;20005;-73
2022/12/31 12:46:48;;;;;;;4.07;1.30;;;16.80;99.90;;;;;;6160851;23;20006;-73
2022/12/31 12:49:28;;;;;;;4.32;0.40;;;16.80;99.90;;;;;;6160407;23;20001;-73
2022/12/31 12:52:13;;;;;;;1.02;0.40;;;16.80;99.90;;;;;;6159344;23;20010;-73
2022/12/31 12:55:08;;;;;;;2.97;0.70;;;16.80;99.90;;;;;;6160848;23;20048;-73
2022/12/31 12:57:57;;;;;;;2.20;0.45;;;16.80;99.90;;;;;;6161168;23;20001;-73
2022/12/31 13:00:41;;;;;;;1.98;0.45;;;16.80;99.90;;;;;;6159052;23;20075;-73
2022/12/31 13:03:37;;;;;;;1.77;0.40;;;16.70;99.90;;;;;;6161304;23;20008;-73
2022/12/31 13:06:06;;;;;;;1.83;0.60;;;16.50;99.90;;;;;;6160262;23;20381;-74
2022/12/31 13:08:54;;;;;;;4.80;0.80;;;16.10;99.90;;;;;;6161127;23;19998;-73
2022/12/31 13:11:41;;;;;;;5.28;0.73;;;15.80;99.90;;;;;;6160878;23;20002;-73
2022/12/31 13:14:32;;;;;;;3.50;0.40;;;15.40;99.90;;;;;;6160333;23;20075;-73
2022/12/31 13:17:42;;;;;;;1.55;0.55;;;15.30;99.90;;;;;;6160308;23;20006;-74
2022/12/31 13:20:19;;;;;;;1.90;0.45;;;15.30;99.90;;;;;;6144667;23;20009;-74
2022/12/31 13:23:10;;;;;;;2.33;0.45;;;15.20;99.90;;;;;;6160424;23;20263;-74
2022/12/31 13:26:15;;;;;;;1.80;0.50;;;15.30;99.90;;;;;;6159791;23;20064;-73
2022/12/31 13:28:45;;;;;;;0.88;0.30;;;15.30;99.90;;;;;;6104939;23;20410;-72
2022/12/31 13:31:36;;;;;;;3.45;0.38;;;15.40;99.90;;;;;;6130782;23;20002;-72
2022/12/31 13:34:24;;;;;;;3.60;0.70;;;15.60;99.90;;;;;;6104498;23;20013;-72
2022/12/31 13:36:53;;;;;;;1.63;0.52;;;15.70;99.90;;;;;;6130592;23;20068;-72
2022/12/31 13:39:32;;;;;;;2.17;0.50;;;15.80;99.90;;;;;;6130440;23;20037;-71
2022/12/31 13:42:09;;;;;;;2.35;0.50;;;15.90;99.90;;;;;;6131125;23;20241;-72
2022/12/31 13:44:46;;;;;;;1.67;0.57;;;16.00;99.90;;;;;;6104812;23;20006;-73
2022/12/31 13:47:25;;;;;;;1.52;0.63;;;16.10;99.90;;;;;;6131191;23;20053;-72
2022/12/31 13:50:08;;;;;;;3.78;1.60;;;16.20;99.90;;;;;;6131140;23;20028;-72